Blewbury, United Kingdom
Current Conditions -  °F | °C
As of 10:50 AM on Thursday 18 Dec 2014 (Local Time) from EGUB Reporting Station
Light Rain Light Rain  
Wind Chill: 55°   Ceiling: 1400
Heat Index: 55°   Visibility: 6mi
Dew Point: 50°   Wind: 15mph
Humidity: 82%   Direction: 230°SW
Pressure: 29.83"   Gusts: NA
Location:  51.57°N, 1.23°W
Report Text: EGUB 181050Z 23013KT 9999 -RA BKN014 13/10 Q1010 GRN TEMPO BKN014 WHT
Loading
Personal Weather Stations






























Interactive Weather Map New forecast layout! Learn more

10-Day Weather Forecast

Advertisements
Track Severe Weather on mobile